Time;durP1;ratioP1;P1;durP2;ratioP2;P2;SDS_P1;SDS_P2;PMS_P1;PMS_P2;Temp;Humidity;BMP_temperature;BMP_pressure;BME280_temperature;BME280_humidity;BME280_pressure;Samples;Min_cycle;Max_cycle;Signal;HPM_P1;HPM_P2
2023/10/28 00:00:38;;;;;;;1240.70;890.10;;;8.90;99.90;;;;;;5015779;28;20537;-79
2023/10/28 00:03:05;;;;;;;1237.83;882.10;;;9.00;99.90;;;;;;5015787;28;20823;-79
2023/10/28 00:05:32;;;;;;;1242.80;890.30;;;9.00;99.90;;;;;;5015865;28;20451;-79
2023/10/28 00:08:01;;;;;;;1238.20;898.90;;;9.00;99.90;;;;;;5015247;28;20845;-79
2023/10/28 00:10:28;;;;;;;1228.47;891.63;;;9.10;99.90;;;;;;5015527;28;20547;-80
2023/10/28 00:12:55;;;;;;;1207.23;870.63;;;9.10;99.90;;;;;;5015856;28;20476;-80
2023/10/28 00:15:24;;;;;;;1226.37;885.33;;;9.10;99.90;;;;;;5015405;28;20456;-78
2023/10/28 00:17:51;;;;;;;1220.83;880.73;;;9.20;99.90;;;;;;5015640;28;20566;-78
2023/10/28 00:20:19;;;;;;;1219.00;876.30;;;9.20;99.90;;;;;;5015197;28;20484;-78
2023/10/28 00:22:46;;;;;;;1228.87;894.87;;;9.20;99.90;;;;;;5015539;28;20455;-79
2023/10/28 00:25:15;;;;;;;1232.07;890.87;;;9.30;99.90;;;;;;5015364;28;20555;-79
2023/10/28 00:27:43;;;;;;;1228.70;900.63;;;9.30;99.90;;;;;;5007242;28;21019;-79
2023/10/28 00:30:12;;;;;;;1219.53;896.30;;;9.30;99.90;;;;;;5015453;28;20459;-80
2023/10/28 00:32:39;;;;;;;1226.30;895.63;;;9.30;99.90;;;;;;5016410;28;20844;-86
2023/10/28 00:35:08;;;;;;;1225.07;893.80;;;9.40;99.90;;;;;;5015332;28;20452;-85
2023/10/28 00:37:35;;;;;;;1218.10;884.57;;;9.40;99.90;;;;;;5015117;28;20452;-83
2023/10/28 00:40:05;;;;;;;1232.17;897.67;;;9.50;99.90;;;;;;5015053;28;20514;-82
2023/10/28 00:42:35;;;;;;;1220.07;900.40;;;9.50;99.90;;;;;;5015226;28;20547;-81
2023/10/28 00:45:02;;;;;;;1221.77;898.60;;;9.50;99.90;;;;;;5015669;28;20457;-87
2023/10/28 00:47:29;;;;;;;1225.40;894.20;;;9.50;99.90;;;;;;5014778;28;20458;-87
2023/10/28 00:49:57;;;;;;;1214.13;888.17;;;9.50;99.90;;;;;;5014898;28;20960;-86
2023/10/28 00:52:26;;;;;;;1223.37;890.50;;;9.50;99.90;;;;;;5015060;28;20483;-87
2023/10/28 00:54:54;;;;;;;1220.00;880.70;;;9.50;99.90;;;;;;5013805;28;20481;-86
2023/10/28 00:57:22;;;;;;;1217.60;881.83;;;9.50;99.90;;;;;;5014588;28;20495;-86
2023/10/28 00:59:50;;;;;;;1234.53;892.73;;;9.50;99.90;;;;;;5015021;28;20540;-86
2023/10/28 01:02:17;;;;;;;1229.53;894.03;;;9.50;99.90;;;;;;5015336;28;20487;-85
2023/10/28 01:04:45;;;;;;;1218.37;892.27;;;9.60;99.90;;;;;;5014675;28;20535;-85
2023/10/28 01:07:12;;;;;;;1226.43;891.43;;;9.60;99.90;;;;;;5014428;28;20517;-85
2023/10/28 01:09:46;;;;;;;1224.53;889.87;;;9.60;99.90;;;;;;5008203;28;20455;-85
2023/10/28 01:12:13;;;;;;;1214.50;876.20;;;9.80;99.90;;;;;;5014416;28;20454;-85
2023/10/28 01:14:40;;;;;;;1230.07;888.60;;;9.80;99.90;;;;;;5014226;28;20456;-85
2023/10/28 01:17:09;;;;;;;1224.37;886.07;;;9.90;99.90;;;;;;5014124;28;20543;-84
2023/10/28 01:19:36;;;;;;;1222.90;893.57;;;9.90;99.90;;;;;;5014260;28;20456;-84
2023/10/28 01:22:05;;;;;;;1220.93;893.03;;;9.90;99.90;;;;;;5014053;28;20480;-85
2023/10/28 01:24:34;;;;;;;1220.03;888.57;;;9.90;99.90;;;;;;5014124;28;20949;-85
2023/10/28 01:27:01;;;;;;;1218.17;882.57;;;9.90;99.90;;;;;;5013904;28;20941;-85
2023/10/28 01:29:29;;;;;;;1227.10;895.10;;;9.90;99.90;;;;;;5014126;28;21012;-84
2023/10/28 01:31:56;;;;;;;1213.77;888.20;;;9.90;99.90;;;;;;5014058;28;20453;-84
2023/10/28 01:34:23;;;;;;;1210.47;894.37;;;9.90;99.90;;;;;;5013872;28;20504;-90
2023/10/28 01:36:50;;;;;;;1218.63;897.13;;;9.90;99.90;;;;;;5014093;28;20449;-88
2023/10/28 01:39:19;;;;;;;1223.27;899.80;;;9.90;99.90;;;;;;5013924;28;20453;-87
2023/10/28 01:41:46;;;;;;;1214.30;900.70;;;9.90;99.90;;;;;;5014096;28;20488;-89
2023/10/28 01:44:14;;;;;;;1206.67;900.60;;;9.90;99.90;;;;;;5014427;28;20451;-90
2023/10/28 01:46:41;;;;;;;1201.60;900.87;;;9.90;99.90;;;;;;5014229;28;20532;-90
2023/10/28 01:49:08;;;;;;;1192.87;894.87;;;9.90;99.90;;;;;;5014204;28;20453;-90
2023/10/28 01:51:35;;;;;;;1189.87;900.03;;;9.90;99.90;;;;;;5014191;28;20989;-90
2023/10/28 01:54:01;;;;;;;1180.17;895.17;;;9.90;99.90;;;;;;5013687;28;20967;-89
2023/10/28 01:56:30;;;;;;;1180.07;892.93;;;9.90;99.90;;;;;;5014299;28;20457;-89
2023/10/28 01:58:56;;;;;;;1165.00;888.97;;;9.90;99.90;;;;;;5013958;28;20502;-89
2023/10/28 02:01:25;;;;;;;1151.13;882.50;;;9.90;99.90;;;;;;5013975;28;20516;-89
2023/10/28 02:03:53;;;;;;;1146.97;882.33;;;9.90;99.90;;;;;;5013706;28;20511;-88
2023/10/28 02:06:20;;;;;;;1151.77;883.90;;;9.90;99.90;;;;;;5013252;28;20462;-89
2023/10/28 02:08:48;;;;;;;1149.77;885.87;;;9.90;99.90;;;;;;5013579;28;20457;-88
2023/10/28 02:11:14;;;;;;;1147.23;884.90;;;9.90;99.90;;;;;;5013715;28;20459;-88
2023/10/28 02:13:43;;;;;;;1136.30;885.67;;;9.90;99.90;;;;;;5005375;28;20460;-88
2023/10/28 02:16:10;;;;;;;1135.50;871.97;;;9.90;99.90;;;;;;5013158;28;20487;-87
2023/10/28 02:18:37;;;;;;;1135.50;877.80;;;9.90;99.90;;;;;;5013323;28;20448;-87
2023/10/28 02:21:04;;;;;;;1124.10;881.47;;;9.90;99.90;;;;;;5013647;28;20575;-86
2023/10/28 02:23:31;;;;;;;1121.50;883.50;;;9.90;99.90;;;;;;5013206;28;20894;-86
2023/10/28 02:25:58;;;;;;;1120.33;873.33;;;9.90;99.90;;;;;;5013315;28;20461;-85
2023/10/28 02:28:25;;;;;;;1117.60;875.17;;;9.90;99.90;;;;;;5013388;28;20808;-85
2023/10/28 02:30:53;;;;;;;1106.13;870.90;;;9.90;99.90;;;;;;5013041;28;20462;-85
2023/10/28 02:33:19;;;;;;;1112.53;881.30;;;9.90;99.90;;;;;;5012649;28;20460;-84
2023/10/28 02:35:47;;;;;;;1108.00;888.87;;;9.90;99.90;;;;;;5012894;28;20478;-84
2023/10/28 02:38:15;;;;;;;1099.67;889.93;;;9.90;99.90;;;;;;5012800;28;20460;-84
2023/10/28 02:40:46;;;;;;;1104.63;895.47;;;9.90;99.90;;;;;;5013043;28;20460;-84
2023/10/28 02:43:13;;;;;;;1095.87;891.43;;;9.80;99.90;;;;;;5012946;28;20544;-83
2023/10/28 02:45:40;;;;;;;1089.10;888.10;;;9.80;99.90;;;;;;5012750;28;20467;-83
2023/10/28 02:48:08;;;;;;;1094.70;901.47;;;9.80;99.90;;;;;;5012965;28;20453;-84
2023/10/28 02:50:37;;;;;;;1078.47;894.07;;;9.70;99.90;;;;;;5012814;28;20464;-84
2023/10/28 02:53:04;;;;;;;1091.27;897.77;;;9.70;99.90;;;;;;5012656;28;20941;-84
2023/10/28 02:55:30;;;;;;;1065.13;895.80;;;9.60;99.90;;;;;;5012755;28;20509;-84
2023/10/28 02:57:57;;;;;;;1066.57;886.07;;;9.60;99.90;;;;;;5012826;28;20452;-84
2023/10/28 03:00:24;;;;;;;1052.57;874.00;;;9.60;99.90;;;;;;5013112;28;20650;-84
2023/10/28 03:02:52;;;;;;;1045.17;869.90;;;9.60;99.90;;;;;;5012706;28;20485;-84
2023/10/28 03:05:22;;;;;;;1053.23;862.60;;;9.50;99.90;;;;;;5012658;28;20938;-84
2023/10/28 03:07:50;;;;;;;1051.33;874.20;;;9.60;99.90;;;;;;5012561;28;20494;-84
2023/10/28 03:10:16;;;;;;;1053.70;878.83;;;9.60;99.90;;;;;;5012780;28;20448;-84
2023/10/28 03:12:44;;;;;;;1049.73;859.97;;;9.60;99.90;;;;;;5012753;28;20456;-84
2023/10/28 03:15:12;;;;;;;1052.40;867.97;;;9.50;99.90;;;;;;5013017;28;20456;-84
2023/10/28 03:17:39;;;;;;;1059.20;877.00;;;9.50;99.90;;;;;;5013359;28;20749;-83
2023/10/28 03:20:08;;;;;;;1053.73;866.23;;;9.50;99.90;;;;;;5016634;28;20462;-83
2023/10/28 03:22:37;;;;;;;1055.37;877.07;;;9.50;99.90;;;;;;5016429;28;20484;-83
2023/10/28 03:25:04;;;;;;;1073.27;880.13;;;9.50;99.90;;;;;;5016835;28;20451;-83
2023/10/28 03:27:32;;;;;;;1070.47;868.37;;;9.50;99.90;;;;;;5016508;28;20483;-84
2023/10/28 03:29:59;;;;;;;1063.20;874.07;;;9.40;99.90;;;;;;5016476;28;20538;-83
2023/10/28 03:32:26;;;;;;;1082.00;873.87;;;9.30;99.90;;;;;;5016191;28;20453;-83
2023/10/28 03:34:53;;;;;;;1075.50;871.90;;;9.20;99.90;;;;;;5016649;28;20463;-83
2023/10/28 03:37:19;;;;;;;1078.13;859.87;;;9.10;99.90;;;;;;5016849;28;20458;-83
2023/10/28 03:39:48;;;;;;;1084.23;862.13;;;9.10;99.90;;;;;;5017165;28;20455;-83
2023/10/28 03:42:14;;;;;;;1092.83;869.23;;;9.00;99.90;;;;;;5017174;28;20487;-83
2023/10/28 03:44:41;;;;;;;1074.93;865.87;;;9.10;99.90;;;;;;5016357;28;20545;-83
2023/10/28 03:47:08;;;;;;;1076.47;888.30;;;9.00;99.90;;;;;;5016406;28;20452;-82
2023/10/28 03:49:36;;;;;;;1062.03;886.43;;;9.00;99.90;;;;;;5016333;28;20488;-83
2023/10/28 03:52:03;;;;;;;1063.97;892.33;;;9.00;99.90;;;;;;5016299;28;20459;-82
2023/10/28 03:54:30;;;;;;;1058.17;894.60;;;9.00;99.90;;;;;;5016019;28;20459;-82
2023/10/28 03:56:59;;;;;;;1050.57;890.30;;;8.90;99.90;;;;;;5015718;28;20455;-82
2023/10/28 03:59:25;;;;;;;1043.30;877.33;;;8.90;99.90;;;;;;5015576;28;20547;-82
2023/10/28 04:01:52;;;;;;;1043.53;869.60;;;8.90;99.90;;;;;;5016013;28;20488;-82
2023/10/28 04:04:20;;;;;;;1061.13;872.97;;;8.80;99.90;;;;;;5015913;28;20483;-83
2023/10/28 04:06:47;;;;;;;1060.47;860.93;;;8.90;99.90;;;;;;5015507;28;20463;-83
2023/10/28 04:09:14;;;;;;;1051.93;861.80;;;9.00;99.90;;;;;;5015804;28;20456;-83
2023/10/28 04:11:41;;;;;;;1056.00;866.53;;;9.10;99.90;;;;;;5015673;28;20452;-82
2023/10/28 04:14:10;;;;;;;1061.87;875.20;;;9.10;99.90;;;;;;5015301;28;20545;-82
2023/10/28 04:16:37;;;;;;;1057.37;868.77;;;9.10;99.90;;;;;;5015734;28;20490;-82
2023/10/28 04:19:03;;;;;;;1060.87;887.03;;;9.20;99.90;;;;;;5015812;28;20448;-82
2023/10/28 04:21:30;;;;;;;1053.17;881.50;;;9.30;99.90;;;;;;5015343;28;21007;-82
2023/10/28 04:23:57;;;;;;;1036.17;880.47;;;9.30;99.90;;;;;;5015338;28;20514;-81
2023/10/28 04:26:24;;;;;;;1014.63;889.90;;;9.40;99.90;;;;;;5015055;28;20452;-81
2023/10/28 04:28:51;;;;;;;1014.80;903.70;;;9.50;99.90;;;;;;5015471;28;20452;-81
2023/10/28 04:31:19;;;;;;;996.90;887.90;;;9.50;99.90;;;;;;5015525;28;20532;-81
2023/10/28 04:33:46;;;;;;;964.40;859.07;;;9.50;99.90;;;;;;5015054;28;20452;-81
2023/10/28 04:36:13;;;;;;;987.83;883.37;;;9.50;99.90;;;;;;5015271;28;20452;-80
2023/10/28 04:38:40;;;;;;;973.20;870.90;;;9.60;99.90;;;;;;5015507;28;20458;-80
2023/10/28 04:41:08;;;;;;;976.63;876.83;;;9.60;99.90;;;;;;5015115;28;20525;-77
2023/10/28 04:43:35;;;;;;;985.03;884.93;;;9.60;99.90;;;;;;5014964;28;20487;-77
2023/10/28 04:46:02;;;;;;;968.33;871.33;;;9.60;99.90;;;;;;5014726;28;20541;-81
2023/10/28 04:48:30;;;;;;;961.60;864.30;;;9.60;99.90;;;;;;5015893;28;20463;-83
2023/10/28 04:50:57;;;;;;;968.07;870.47;;;9.60;99.90;;;;;;5016044;28;20456;-83
2023/10/28 04:53:24;;;;;;;950.13;853.53;;;9.60;99.90;;;;;;5015936;28;20455;-83
2023/10/28 04:55:51;;;;;;;960.60;862.60;;;9.60;99.90;;;;;;5016043;28;20531;-83
2023/10/28 04:58:18;;;;;;;973.47;875.30;;;9.60;99.90;;;;;;5016185;28;20476;-83
2023/10/28 05:00:45;;;;;;;990.23;890.80;;;9.60;99.90;;;;;;5015664;28;20459;-83
2023/10/28 05:03:12;;;;;;;993.60;892.73;;;9.60;99.90;;;;;;5015319;28;20855;-84
2023/10/28 05:05:40;;;;;;;974.50;873.90;;;9.60;99.90;;;;;;5015188;28;20459;-84
2023/10/28 05:08:08;;;;;;;976.33;874.93;;;9.50;99.90;;;;;;5014450;28;20894;-84
2023/10/28 05:10:35;;;;;;;965.13;862.00;;;9.50;99.90;;;;;;5014753;28;20527;-84
2023/10/28 05:13:03;;;;;;;928.30;825.47;;;9.50;99.90;;;;;;5014591;28;20457;-83
2023/10/28 05:15:30;;;;;;;933.27;822.73;;;9.50;99.90;;;;;;5014244;28;20543;-84
2023/10/28 05:17:56;;;;;;;935.40;831.80;;;9.50;99.90;;;;;;5014514;28;20449;-83
2023/10/28 05:20:24;;;;;;;938.07;831.50;;;9.50;99.90;;;;;;5014280;28;20455;-83
2023/10/28 05:22:52;;;;;;;952.23;832.50;;;9.50;99.90;;;;;;5014051;28;20511;-83
2023/10/28 05:25:19;;;;;;;980.17;848.00;;;9.50;99.90;;;;;;5014124;28;20949;-83
2023/10/28 05:27:46;;;;;;;960.60;824.33;;;9.50;99.90;;;;;;5014498;28;20455;-82
2023/10/28 05:30:14;;;;;;;976.13;836.60;;;9.50;99.90;;;;;;5014039;28;20503;-83
2023/10/28 05:32:41;;;;;;;977.27;850.57;;;9.50;99.90;;;;;;5013940;28;20501;-82
2023/10/28 05:35:10;;;;;;;970.27;832.83;;;9.50;99.90;;;;;;5013769;28;20536;-82
2023/10/28 05:37:37;;;;;;;962.40;845.87;;;9.50;99.90;;;;;;5013325;28;20454;-82
2023/10/28 05:40:10;;;;;;;969.93;862.00;;;9.50;99.90;;;;;;5013746;28;20460;-82
2023/10/28 05:42:37;;;;;;;965.20;850.07;;;9.50;99.90;;;;;;5013946;28;20551;-82
2023/10/28 05:45:07;;;;;;;963.70;850.47;;;9.50;99.90;;;;;;5013943;28;20452;-82
2023/10/28 05:47:34;;;;;;;965.87;851.57;;;9.40;99.90;;;;;;5013637;28;20571;-82
2023/10/28 05:50:05;;;;;;;972.30;855.10;;;9.30;99.90;;;;;;5013414;28;20452;-83
2023/10/28 05:52:33;;;;;;;986.30;849.67;;;9.20;99.90;;;;;;5013408;28;20505;-81
2023/10/28 05:55:00;;;;;;;950.37;842.10;;;9.20;99.90;;;;;;5013669;28;20460;-81
2023/10/28 05:57:28;;;;;;;967.17;848.73;;;9.10;99.90;;;;;;5013619;28;20453;-81
2023/10/28 05:59:55;;;;;;;977.37;843.03;;;9.10;99.90;;;;;;5013498;28;20457;-81
2023/10/28 06:02:24;;;;;;;975.97;830.23;;;9.10;99.90;;;;;;5013724;28;20834;-81
2023/10/28 06:04:52;;;;;;;982.87;840.47;;;9.10;99.90;;;;;;5013464;28;20467;-80
2023/10/28 06:07:18;;;;;;;995.63;837.70;;;9.00;99.90;;;;;;5013312;28;20454;-80
2023/10/28 06:09:45;;;;;;;1069.65;850.47;;;9.00;99.90;;;;;;5012528;28;20450;-82
2023/10/28 06:12:13;;;;;;;973.90;826.17;;;9.00;99.90;;;;;;5013190;28;20487;-81
2023/10/28 06:14:42;;;;;;;984.27;834.33;;;9.00;99.90;;;;;;5013372;28;20544;-81
2023/10/28 06:17:10;;;;;;;999.77;834.20;;;9.00;99.90;;;;;;5013277;28;20484;-81
2023/10/28 06:19:37;;;;;;;1011.67;831.50;;;9.00;99.90;;;;;;5013167;28;20459;-81
2023/10/28 06:22:04;;;;;;;1027.77;843.10;;;9.10;99.90;;;;;;5013415;28;20445;-81
2023/10/28 06:24:31;;;;;;;1020.90;817.67;;;9.10;99.90;;;;;;5013450;28;20833;-81
2023/10/28 06:26:59;;;;;;;1025.33;821.57;;;9.20;99.90;;;;;;5013005;28;20480;-81
2023/10/28 06:29:27;;;;;;;1031.17;830.00;;;9.20;99.90;;;;;;5012932;28;20455;-81
2023/10/28 06:31:57;;;;;;;1033.43;818.63;;;9.20;99.90;;;;;;5013267;28;20863;-80
2023/10/28 06:34:25;;;;;;;1039.97;814.80;;;9.30;99.90;;;;;;5013137;28;20480;-80
2023/10/28 06:36:54;;;;;;;1035.70;823.93;;;9.40;99.90;;;;;;5013013;28;20454;-80
2023/10/28 06:39:21;;;;;;;1066.57;865.50;;;9.40;99.90;;;;;;5013430;28;20462;-80
2023/10/28 06:41:48;;;;;;;1045.63;840.10;;;9.50;99.90;;;;;;5012719;28;20452;-81
2023/10/28 06:44:15;;;;;;;1047.40;833.37;;;9.50;99.90;;;;;;5012854;28;20502;-80
2023/10/28 06:46:42;;;;;;;1034.83;822.97;;;9.50;99.90;;;;;;5012954;28;20553;-80
2023/10/28 06:49:10;;;;;;;1033.30;819.57;;;9.60;99.90;;;;;;5012925;28;20459;-80
2023/10/28 06:51:37;;;;;;;1022.70;825.17;;;9.60;99.90;;;;;;5012854;28;20454;-80
2023/10/28 06:54:04;;;;;;;1025.57;827.93;;;9.70;99.90;;;;;;5012062;28;20930;-79
2023/10/28 06:56:31;;;;;;;1017.23;838.73;;;9.80;99.90;;;;;;5012424;28;20611;-79
2023/10/28 06:58:58;;;;;;;1009.63;841.90;;;9.80;99.90;;;;;;5012805;28;20546;-79
2023/10/28 07:01:26;;;;;;;992.27;831.97;;;9.90;99.90;;;;;;5012694;28;20453;-79
2023/10/28 07:03:53;;;;;;;961.67;826.03;;;9.90;99.90;;;;;;5012449;28;20992;-79
2023/10/28 07:06:21;;;;;;;930.50;827.08;;;9.90;99.90;;;;;;5011275;28;20546;-78
2023/10/28 07:08:48;;;;;;;927.50;832.90;;;9.90;99.90;;;;;;5012403;28;20234;-78
2023/10/28 07:11:15;;;;;;;926.63;832.40;;;10.00;99.90;;;;;;5012343;28;20457;-78
2023/10/28 07:13:42;;;;;;;922.20;829.13;;;10.00;99.90;;;;;;5010714;28;20813;-78
2023/10/28 07:16:09;;;;;;;918.43;825.53;;;10.10;99.90;;;;;;5011973;28;20453;-78
2023/10/28 07:18:35;;;;;;;912.60;820.40;;;10.10;99.90;;;;;;5011987;28;20816;-78
2023/10/28 07:21:04;;;;;;;915.13;823.97;;;10.10;99.90;;;;;;5011480;28;20457;-78
2023/10/28 07:23:32;;;;;;;907.53;816.90;;;10.10;99.90;;;;;;5011480;28;20559;-78
2023/10/28 07:26:01;;;;;;;904.67;813.50;;;10.20;99.90;;;;;;5011762;28;20960;-78
2023/10/28 07:28:33;;;;;;;910.63;819.67;;;10.20;99.90;;;;;;5011869;28;20541;-78
2023/10/28 07:31:01;;;;;;;912.87;821.40;;;10.20;99.90;;;;;;5012303;28;20452;-78
2023/10/28 07:33:31;;;;;;;896.57;806.67;;;10.20;99.90;;;;;;5011916;28;20508;-79
2023/10/28 07:36:01;;;;;;;894.63;802.93;;;10.30;99.90;;;;;;5011835;28;20462;-79
2023/10/28 07:38:28;;;;;;;900.70;807.87;;;10.40;99.90;;;;;;5012241;28;20450;-79
2023/10/28 07:40:57;;;;;;;901.20;806.93;;;10.50;99.90;;;;;;5012187;28;20543;-79
2023/10/28 07:43:24;;;;;;;895.37;801.83;;;10.60;99.90;;;;;;5011880;28;20515;-79
2023/10/28 07:45:51;;;;;;;897.90;806.50;;;10.70;99.90;;;;;;5011951;28;20456;-79
2023/10/28 07:48:18;;;;;;;910.30;820.30;;;10.70;99.90;;;;;;5010901;28;20462;-79
2023/10/28 07:50:45;;;;;;;900.38;810.00;;;10.80;99.90;;;;;;5009760;28;20458;-78
2023/10/28 07:53:12;;;;;;;897.35;811.15;;;10.80;99.90;;;;;;5009911;28;20553;-78
2023/10/28 07:55:39;;;;;;;899.43;823.23;;;10.90;99.90;;;;;;5010804;28;20558;-78
2023/10/28 07:58:07;;;;;;;902.73;827.47;;;10.90;99.90;;;;;;5010779;28;20581;-78
2023/10/28 08:00:37;;;;;;;894.73;819.93;;;10.90;99.90;;;;;;5010784;28;20464;-78
2023/10/28 08:03:04;;;;;;;904.67;829.20;;;10.90;99.90;;;;;;5012189;28;20500;-78
2023/10/28 08:05:31;;;;;;;892.30;816.97;;;11.00;99.90;;;;;;5015819;28;20463;-77
2023/10/28 08:07:59;;;;;;;888.53;813.13;;;11.00;99.90;;;;;;5015849;28;20506;-77
2023/10/28 08:10:26;;;;;;;884.73;808.20;;;11.00;99.90;;;;;;5015628;28;20496;-77
2023/10/28 08:12:53;;;;;;;882.40;803.10;;;11.10;99.90;;;;;;5015214;28;20446;-77
2023/10/28 08:15:22;;;;;;;877.53;793.55;;;11.10;99.90;;;;;;5023816;28;20457;-77
2023/10/28 08:17:50;;;;;;;881.97;804.60;;;11.10;99.90;;;;;;5033219;28;20601;-78
2023/10/28 08:20:18;;;;;;;878.13;801.17;;;11.20;99.90;;;;;;5034542;28;20455;-78
2023/10/28 08:22:45;;;;;;;874.63;797.00;;;11.20;99.90;;;;;;5035389;28;20539;-78
2023/10/28 08:25:15;;;;;;;883.00;804.73;;;11.30;99.90;;;;;;5031485;28;20813;-78
2023/10/28 08:27:44;;;;;;;887.43;810.37;;;11.40;99.90;;;;;;5022700;28;20455;-78
2023/10/28 08:30:15;;;;;;;892.03;817.00;;;11.40;99.90;;;;;;5033198;28;20451;-78
2023/10/28 08:32:44;;;;;;;892.33;817.37;;;11.50;99.90;;;;;;5028837;28;21094;-78
2023/10/28 08:35:11;;;;;;;887.30;811.90;;;11.60;99.90;;;;;;4996028;28;20457;-78
2023/10/28 08:37:38;;;;;;;882.97;808.20;;;11.70;99.90;;;;;;5013167;28;20884;-78
2023/10/28 08:40:08;;;;;;;885.77;811.07;;;11.70;99.90;;;;;;5015547;28;20548;-78
2023/10/28 08:42:35;;;;;;;884.63;811.20;;;11.80;99.90;;;;;;5015043;28;20515;-77
2023/10/28 08:45:04;;;;;;;882.33;810.37;;;11.80;99.90;;;;;;5015437;28;20437;-78
2023/10/28 08:47:33;;;;;;;873.10;803.20;;;11.80;99.90;;;;;;5015170;28;20576;-78
2023/10/28 08:50:06;;;;;;;886.87;815.47;;;11.70;99.90;;;;;;5014830;28;20818;-78
2023/10/28 08:52:36;;;;;;;892.67;821.70;;;11.70;99.90;;;;;;5015179;28;20472;-78
2023/10/28 08:55:03;;;;;;;902.90;828.73;;;11.70;99.90;;;;;;5025322;28;20459;-78
2023/10/28 08:57:30;;;;;;;893.73;819.73;;;11.70;99.90;;;;;;5034980;28;20467;-78
2023/10/28 08:59:57;;;;;;;880.37;806.13;;;11.70;99.90;;;;;;5035072;28;20454;-78
2023/10/28 09:02:25;;;;;;;876.90;800.20;;;11.80;99.90;;;;;;5015589;28;20995;-78
2023/10/28 09:04:52;;;;;;;881.23;808.20;;;12.00;99.90;;;;;;5014917;28;20483;-78
2023/10/28 09:07:20;;;;;;;892.33;820.27;;;12.00;99.90;;;;;;5032165;28;20541;-78
2023/10/28 09:09:58;;;;;;;882.53;812.60;;;12.20;99.90;;;;;;5034788;28;20542;-78
2023/10/28 09:12:25;;;;;;;886.03;817.20;;;12.40;99.90;;;;;;5034814;28;20822;-78
2023/10/28 09:14:52;;;;;;;885.23;819.13;;;12.70;99.90;;;;;;5034320;28;20443;-78
2023/10/28 09:17:20;;;;;;;875.10;814.33;;;13.00;99.90;;;;;;5033988;28;20456;-78
2023/10/28 09:19:47;;;;;;;859.70;806.60;;;13.30;99.90;;;;;;5034535;28;20456;-78
2023/10/28 09:22:14;;;;;;;843.50;795.00;;;13.50;99.90;;;;;;5032183;28;20838;-77
2023/10/28 09:24:46;;;;;;;776.80;739.13;;;13.50;99.90;;;;;;5026388;28;20480;-78
2023/10/28 09:27:13;;;;;;;708.37;677.53;;;13.50;99.90;;;;;;5034560;28;20459;-78
2023/10/28 09:29:41;;;;;;;702.43;670.13;;;13.40;99.90;;;;;;5034342;28;20495;-78
2023/10/28 09:32:10;;;;;;;522.70;502.75;;;13.20;99.90;;;;;;5033561;28;20460;-78
2023/10/28 09:34:38;;;;;;;660.63;632.97;;;13.00;99.90;;;;;;5033396;28;20445;-79
2023/10/28 09:37:06;;;;;;;591.37;568.40;;;13.00;99.90;;;;;;5033916;28;20197;-78
2023/10/28 09:39:33;;;;;;;595.60;572.30;;;13.00;99.90;;;;;;5034590;28;20456;-79
2023/10/28 09:42:02;;;;;;;654.50;628.10;;;13.10;99.90;;;;;;5034386;28;20447;-78
2023/10/28 09:44:29;;;;;;;687.20;658.17;;;13.20;99.90;;;;;;5034002;28;20490;-78
2023/10/28 09:47:01;;;;;;;697.37;667.63;;;13.30;99.90;;;;;;5022804;28;20449;-78
2023/10/28 09:49:30;;;;;;;693.33;663.77;;;13.30;99.90;;;;;;5014341;28;20460;-79
2023/10/28 09:52:00;;;;;;;597.60;573.10;;;13.30;99.90;;;;;;5014336;28;20453;-79
2023/10/28 09:54:33;;;;;;;597.77;573.73;;;13.20;99.90;;;;;;5014312;28;20471;-78
2023/10/28 09:57:03;;;;;;;656.00;628.40;;;13.20;99.90;;;;;;5030172;28;20950;-79
2023/10/28 09:59:35;;;;;;;527.13;506.10;;;13.40;99.90;;;;;;5034083;28;20956;-79
2023/10/28 10:02:24;;;;;;;467.20;449.37;;;13.60;99.90;;;;;;5034167;28;20779;-79
2023/10/28 10:04:58;;;;;;;504.27;484.77;;;13.90;99.90;;;;;;5034331;28;20917;-79
2023/10/28 10:07:25;;;;;;;282.30;272.17;;;14.20;99.90;;;;;;5033804;28;20939;-79
2023/10/28 10:09:53;;;;;;;251.30;242.53;;;14.30;99.90;;;;;;5033906;28;20452;-79
2023/10/28 10:12:30;;;;;;;139.10;133.83;;;14.50;99.90;;;;;;5028624;28;20457;-79
2023/10/28 10:14:59;;;;;;;101.60;97.80;;;15.20;99.90;;;;;;5033048;28;20444;-79
2023/10/28 10:17:34;;;;;;;28.00;26.47;;;16.00;99.90;;;;;;5033447;28;20451;-79
2023/10/28 10:20:04;;;;;;;52.77;50.37;;;16.50;99.90;;;;;;5019193;28;20444;-79
2023/10/28 10:22:33;;;;;;;55.47;52.97;;;17.10;99.90;;;;;;5018903;28;20484;-79
2023/10/28 10:25:00;;;;;;;26.90;25.47;;;17.40;97.50;;;;;;5033675;28;20483;-79
2023/10/28 10:27:36;;;;;;;8.73;7.80;;;17.70;95.10;;;;;;5033267;28;20452;-79
2023/10/28 10:30:08;;;;;;;16.57;15.33;;;17.70;94.10;;;;;;5033658;28;20534;-78
2023/10/28 10:32:45;;;;;;;8.90;8.20;;;17.80;94.20;;;;;;5033210;28;20944;-79
2023/10/28 10:35:13;;;;;;;7.53;5.80;;;17.90;92.00;;;;;;5033108;28;20475;-78
2023/10/28 10:37:40;;;;;;;6.10;4.00;;;17.70;90.70;;;;;;5033456;28;20448;-78
2023/10/28 10:40:13;;;;;;;8.53;5.20;;;17.80;89.30;;;;;;5025437;28;20457;-79
2023/10/28 10:42:41;;;;;;;6.70;3.13;;;17.80;84.10;;;;;;5025885;28;20452;-77
2023/10/28 10:45:10;;;;;;;8.33;1.70;;;17.50;83.70;;;;;;5031588;28;20487;-78
2023/10/28 10:47:37;;;;;;;9.70;3.87;;;17.10;83.50;;;;;;5005891;28;20794;-78
2023/10/28 10:50:09;;;;;;;11.70;3.63;;;16.90;83.20;;;;;;4997085;28;20471;-78
2023/10/28 10:52:38;;;;;;;11.80;2.23;;;16.60;75.10;;;;;;5033228;28;20455;-77
2023/10/28 10:55:06;;;;;;;10.30;2.30;;;16.30;81.70;;;;;;5033081;28;20450;-77
2023/10/28 10:57:34;;;;;;;9.33;2.60;;;16.30;82.70;;;;;;5033439;28;20539;-77
2023/10/28 11:00:11;;;;;;;17.80;2.77;;;16.40;82.60;;;;;;5033451;28;20458;-77
2023/10/28 11:02:39;;;;;;;8.33;2.97;;;16.20;74.70;;;;;;5033040;28;20467;-77
2023/10/28 11:05:08;;;;;;;13.90;3.40;;;16.00;74.60;;;;;;5033564;28;20476;-77
2023/10/28 11:07:35;;;;;;;12.93;3.93;;;16.20;82.60;;;;;;5031083;28;20872;-77
2023/10/28 11:10:04;;;;;;;8.63;2.87;;;16.50;82.90;;;;;;5033446;28;20539;-77
2023/10/28 11:12:31;;;;;;;10.20;2.37;;;16.70;82.70;;;;;;5020738;28;20942;-77
2023/10/28 11:14:58;;;;;;;17.27;2.70;;;16.80;78.50;;;;;;5003277;28;20456;-77
2023/10/28 11:17:30;;;;;;;9.17;2.40;;;16.80;80.00;;;;;;5021210;28;20915;-77
2023/10/28 11:19:58;;;;;;;16.17;2.57;;;16.70;78.40;;;;;;5012865;28;20453;-77
2023/10/28 11:22:26;;;;;;;11.47;3.00;;;16.60;83.00;;;;;;5013141;28;20460;-77
2023/10/28 11:24:56;;;;;;;8.40;3.20;;;16.40;82.80;;;;;;5024774;28;20480;-74
2023/10/28 11:27:25;;;;;;;8.67;2.70;;;16.40;83.20;;;;;;5012159;28;20484;-74
2023/10/28 11:29:52;;;;;;;11.30;2.50;;;16.30;82.70;;;;;;5013516;28;20453;-73
2023/10/28 11:32:20;;;;;;;10.50;2.97;;;16.70;83.00;;;;;;5014886;28;20455;-73
2023/10/28 11:34:49;;;;;;;8.97;2.43;;;17.30;83.60;;;;;;5023299;28;20541;-73
2023/10/28 11:37:16;;;;;;;14.57;2.60;;;17.60;68.00;;;;;;5012603;28;20789;-73
2023/10/28 11:39:45;;;;;;;13.97;2.87;;;18.20;68.40;;;;;;5015719;28;20456;-73
2023/10/28 11:42:13;;;;;;;11.47;2.80;;;18.90;69.90;;;;;;5034804;28;20452;-74
2023/10/28 11:44:40;;;;;;;8.90;3.07;;;19.50;69.50;;;;;;5016329;28;20509;-74
2023/10/28 11:47:07;;;;;;;18.53;3.43;;;19.90;57.60;;;;;;5016326;28;20453;-74
2023/10/28 11:49:35;;;;;;;9.93;4.20;;;20.20;53.40;;;;;;5015983;28;20520;-73
2023/10/28 11:52:03;;;;;;;14.00;2.77;;;20.10;53.20;;;;;;5015834;28;20928;-73
2023/10/28 11:54:30;;;;;;;11.47;2.90;;;20.20;49.50;;;;;;5014179;28;20452;-73
2023/10/28 11:56:57;;;;;;;15.53;3.13;;;20.00;48.70;;;;;;5015769;28;20810;-73
2023/10/28 11:59:24;;;;;;;8.30;2.13;;;18.70;52.00;;;;;;5015971;28;20455;-73
2023/10/28 12:01:53;;;;;;;14.90;2.80;;;17.90;55.30;;;;;;5015730;28;20448;-73
2023/10/28 12:04:20;;;;;;;13.23;2.20;;;17.50;59.60;;;;;;5015558;28;20991;-73
2023/10/28 12:06:47;;;;;;;11.07;2.37;;;17.20;67.50;;;;;;5020544;28;20912;-72
2023/10/28 12:09:16;;;;;;;15.23;3.00;;;17.70;66.60;;;;;;5028442;28;20456;-72
2023/10/28 12:11:43;;;;;;;10.77;3.13;;;18.50;60.50;;;;;;5015917;28;20511;-73
2023/10/28 12:14:10;;;;;;;12.80;3.70;;;18.50;58.10;;;;;;5023895;28;20470;-73
2023/10/28 12:16:37;;;;;;;14.30;3.23;;;18.00;60.00;;;;;;5015742;28;20453;-73
2023/10/28 12:19:05;;;;;;;14.10;2.60;;;17.50;63.00;;;;;;5020343;28;21011;-72